createdAt,value
2018-06-16T00:02:08.576Z,14.90
2018-06-16T00:05:12.978Z,15.00
2018-06-16T00:08:17.538Z,14.90
2018-06-16T00:11:21.980Z,14.90
2018-06-16T00:14:26.353Z,15.00
2018-06-16T00:17:30.753Z,15.00
2018-06-16T00:20:35.134Z,15.00
2018-06-16T00:23:39.509Z,15.00
2018-06-16T00:26:43.890Z,15.00
2018-06-16T00:29:48.269Z,15.00
2018-06-16T00:32:52.649Z,15.00
2018-06-16T00:35:57.090Z,15.10
2018-06-16T00:39:01.483Z,15.00
2018-06-16T00:42:05.922Z,15.00
2018-06-16T00:45:10.285Z,15.00
2018-06-16T00:48:14.705Z,15.00
2018-06-16T00:51:19.925Z,15.00
2018-06-16T00:54:24.326Z,15.00
2018-06-16T00:57:41.304Z,15.00
2018-06-16T01:00:45.698Z,15.00
2018-06-16T01:03:50.093Z,15.00
2018-06-16T01:06:54.501Z,15.00
2018-06-16T01:09:58.900Z,15.00
2018-06-16T01:13:03.288Z,15.00
2018-06-16T01:16:07.705Z,15.00
2018-06-16T01:19:12.075Z,15.00
2018-06-16T01:22:16.498Z,15.00
2018-06-16T01:25:20.860Z,15.10
2018-06-16T01:28:25.232Z,15.00
2018-06-16T01:31:29.622Z,15.00
2018-06-16T01:34:34.037Z,15.00
2018-06-16T01:37:38.453Z,15.00
2018-06-16T01:40:42.868Z,15.00
2018-06-16T01:43:47.245Z,15.00
2018-06-16T01:46:51.620Z,15.00
2018-06-16T01:49:55.996Z,14.90
2018-06-16T01:53:00.393Z,14.90
2018-06-16T01:56:04.792Z,14.90
2018-06-16T01:59:09.205Z,14.90
2018-06-16T02:02:13.568Z,14.90
2018-06-16T02:05:17.956Z,14.70
2018-06-16T02:08:22.533Z,14.70
2018-06-16T02:11:26.917Z,14.70
2018-06-16T02:14:31.314Z,14.70
2018-06-16T02:17:35.719Z,14.60
2018-06-16T02:20:40.140Z,14.60
2018-06-16T02:23:44.539Z,14.60
2018-06-16T02:26:48.905Z,14.60
2018-06-16T02:29:53.297Z,14.50
2018-06-16T02:32:57.681Z,14.50
2018-06-16T02:36:02.055Z,14.50
2018-06-16T02:39:09.505Z,14.40
2018-06-16T02:42:13.872Z,14.40
2018-06-16T02:45:18.249Z,14.40
2018-06-16T02:48:22.620Z,14.30
2018-06-16T02:51:27.029Z,14.30
2018-06-16T02:54:31.378Z,14.30
2018-06-16T02:57:35.773Z,14.30
2018-06-16T03:00:40.184Z,14.30
2018-06-16T03:03:44.556Z,14.30
2018-06-16T03:06:48.937Z,14.30
2018-06-16T03:09:53.313Z,14.40
2018-06-16T03:12:57.734Z,14.40
2018-06-16T03:16:02.096Z,14.40
2018-06-16T03:19:06.493Z,14.40
2018-06-16T03:22:10.868Z,14.40
2018-06-16T03:25:15.233Z,14.50
2018-06-16T03:28:19.602Z,14.60
2018-06-16T03:31:23.948Z,14.60
2018-06-16T03:34:28.310Z,14.60
2018-06-16T03:37:32.687Z,14.60
2018-06-16T03:40:37.064Z,14.70
2018-06-16T03:43:41.467Z,14.70
2018-06-16T03:46:45.872Z,14.70
2018-06-16T03:49:50.282Z,14.80
2018-06-16T03:52:54.698Z,14.80
2018-06-16T03:55:59.117Z,14.90
2018-06-16T03:59:03.519Z,14.90
2018-06-16T04:02:07.945Z,15.00
2018-06-16T04:05:12.316Z,15.00
2018-06-16T04:08:16.701Z,15.00
2018-06-16T04:11:21.068Z,15.00
2018-06-16T04:14:25.565Z,15.10
2018-06-16T04:17:29.954Z,15.10
2018-06-16T04:20:34.356Z,15.10
2018-06-16T04:23:38.736Z,15.10
2018-06-16T04:26:43.108Z,15.20
2018-06-16T04:29:47.500Z,15.20
2018-06-16T04:32:51.905Z,15.20
2018-06-16T04:35:56.682Z,15.20
2018-06-16T04:39:01.110Z,15.20
2018-06-16T04:42:05.905Z,15.20
2018-06-16T04:45:10.286Z,15.30
2018-06-16T04:48:14.684Z,15.30
2018-06-16T04:51:19.073Z,15.30
2018-06-16T04:54:23.609Z,15.30
2018-06-16T04:57:28.004Z,15.40
2018-06-16T05:00:32.358Z,15.40
2018-06-16T05:03:36.723Z,15.40
2018-06-16T05:06:41.098Z,15.40
2018-06-16T05:09:45.490Z,15.50
2018-06-16T05:12:49.837Z,15.50
2018-06-16T05:15:54.248Z,15.60
2018-06-16T05:18:58.609Z,15.60
2018-06-16T05:22:02.998Z,15.70
2018-06-16T05:25:07.401Z,15.80
2018-06-16T05:28:11.761Z,15.90
2018-06-16T05:31:16.157Z,15.90
2018-06-16T05:34:20.560Z,16.00
2018-06-16T05:37:24.953Z,16.10
2018-06-16T05:40:29.325Z,16.20
2018-06-16T05:43:33.703Z,16.20
2018-06-16T05:46:38.081Z,16.30
2018-06-16T05:49:42.462Z,16.40
2018-06-16T05:52:46.809Z,16.40
2018-06-16T05:55:51.236Z,16.40
2018-06-16T05:58:55.598Z,16.50
2018-06-16T06:01:59.981Z,16.50
2018-06-16T06:05:04.373Z,16.60
2018-06-16T06:08:08.757Z,16.60
2018-06-16T06:11:13.120Z,16.60
2018-06-16T06:14:17.493Z,16.60
2018-06-16T06:17:21.860Z,16.60
2018-06-16T06:20:26.225Z,16.50
2018-06-16T06:23:30.605Z,16.50
2018-06-16T06:26:35.000Z,16.50
2018-06-16T06:32:43.473Z,16.50
2018-06-16T06:35:47.846Z,16.50
2018-06-16T06:38:52.246Z,16.60
2018-06-16T06:41:56.621Z,16.70
2018-06-16T06:45:00.993Z,16.80
2018-06-16T06:48:05.430Z,16.80
2018-06-16T06:51:09.804Z,16.80
2018-06-16T06:54:14.209Z,16.80
2018-06-16T06:57:18.589Z,16.80
2018-06-16T07:00:22.969Z,16.70
2018-06-16T07:03:27.356Z,16.60
2018-06-16T07:06:31.717Z,16.40
2018-06-16T07:09:36.089Z,16.30
2018-06-16T07:15:44.577Z,16.20
2018-06-16T07:18:48.945Z,16.20
2018-06-16T07:21:53.335Z,16.00
2018-06-16T07:24:57.706Z,16.10
2018-06-16T07:28:02.068Z,16.10
2018-06-16T07:31:06.472Z,16.20
2018-06-16T07:34:10.861Z,16.30
2018-06-16T07:37:15.223Z,16.40
2018-06-16T07:40:19.620Z,16.60
2018-06-16T07:43:23.982Z,16.80
2018-06-16T07:46:28.343Z,16.80
2018-06-16T07:49:32.700Z,16.90
2018-06-16T07:52:37.102Z,16.90
2018-06-16T07:55:41.450Z,17.00
2018-06-16T07:58:45.818Z,17.10
2018-06-16T08:01:50.216Z,17.20
2018-06-16T08:04:54.596Z,17.30
2018-06-16T08:07:58.949Z,17.40
2018-06-16T08:11:03.333Z,17.40
2018-06-16T08:14:07.684Z,17.50
2018-06-16T08:17:12.087Z,17.50
2018-06-16T08:20:16.429Z,17.60
2018-06-16T08:23:20.817Z,17.60
2018-06-16T08:26:25.196Z,17.60
2018-06-16T08:29:29.605Z,17.60
2018-06-16T08:32:33.962Z,17.60
2018-06-16T08:35:38.361Z,17.70
2018-06-16T08:38:42.760Z,17.70
2018-06-16T08:41:47.153Z,17.70
2018-06-16T08:44:51.562Z,17.70
2018-06-16T08:47:55.964Z,17.80
2018-06-16T08:51:00.343Z,17.80
2018-06-16T08:54:04.781Z,17.90
2018-06-16T08:57:09.157Z,17.80
2018-06-16T09:00:13.560Z,17.80
2018-06-16T09:03:17.938Z,17.80
2018-06-16T09:06:22.314Z,17.80
2018-06-16T09:09:26.685Z,17.80
2018-06-16T09:12:31.109Z,17.80
2018-06-16T09:15:35.479Z,17.90
2018-06-16T09:18:39.898Z,17.90
2018-06-16T09:21:44.305Z,18.00
2018-06-16T09:24:50.793Z,18.00
2018-06-16T09:27:55.208Z,18.00
2018-06-16T09:30:59.600Z,18.00
2018-06-16T09:34:04.007Z,18.00
2018-06-16T09:37:08.570Z,18.00
2018-06-16T09:40:12.988Z,18.00
2018-06-16T09:43:17.383Z,18.10
2018-06-16T09:46:21.810Z,18.10
2018-06-16T09:49:26.162Z,18.10
2018-06-16T09:52:30.589Z,18.10
2018-06-16T09:55:35.045Z,18.20
2018-06-16T09:58:39.447Z,18.20
2018-06-16T10:01:43.801Z,18.20
2018-06-16T10:04:48.197Z,18.30
2018-06-16T10:07:52.566Z,18.30
2018-06-16T10:10:56.938Z,18.30
2018-06-16T10:14:01.274Z,18.30
2018-06-16T10:17:05.777Z,18.30
2018-06-16T10:20:10.209Z,18.30
2018-06-16T10:23:14.584Z,18.20
2018-06-16T10:26:18.976Z,18.10
2018-06-16T10:29:23.351Z,18.10
2018-06-16T10:32:27.734Z,18.10
2018-06-16T10:35:32.111Z,18.10
2018-06-16T10:38:36.489Z,18.00
2018-06-16T10:41:41.079Z,18.00
2018-06-16T10:44:45.450Z,17.80
2018-06-16T10:50:53.954Z,17.90
2018-06-16T10:53:58.348Z,17.80
2018-06-16T10:57:02.717Z,17.70
2018-06-16T11:00:07.171Z,17.50
2018-06-16T11:03:11.584Z,17.50
2018-06-16T11:06:15.973Z,17.40
2018-06-16T11:09:20.384Z,17.50
2018-06-16T11:12:24.785Z,17.40
2018-06-16T11:15:29.190Z,17.50
2018-06-16T11:18:33.571Z,17.50
2018-06-16T11:21:38.076Z,17.60
2018-06-16T11:24:42.480Z,17.70
2018-06-16T11:27:50.907Z,17.70
2018-06-16T11:30:55.277Z,17.90
2018-06-16T11:33:59.697Z,18.00
2018-06-16T11:37:04.070Z,18.10
2018-06-16T11:40:08.506Z,18.10
2018-06-16T11:43:12.874Z,18.10
2018-06-16T11:46:17.302Z,18.20
2018-06-16T11:49:21.710Z,18.30
2018-06-16T11:52:26.144Z,18.40
2018-06-16T11:55:30.536Z,18.60
2018-06-16T11:58:34.991Z,18.70
2018-06-16T12:01:39.395Z,18.90
2018-06-16T12:04:43.801Z,19.10
2018-06-16T12:07:48.202Z,19.20
2018-06-16T12:10:52.662Z,19.30
2018-06-16T12:13:57.076Z,19.30
2018-06-16T12:17:01.495Z,19.20
2018-06-16T12:20:05.910Z,19.20
2018-06-16T12:23:10.333Z,19.10
2018-06-16T12:26:14.708Z,19.00
2018-06-16T12:29:19.132Z,19.10
2018-06-16T12:32:23.540Z,19.00
2018-06-16T12:35:27.937Z,19.00
2018-06-16T12:38:32.340Z,19.10
2018-06-16T12:41:36.755Z,19.20
2018-06-16T12:44:41.329Z,19.30
2018-06-16T12:47:45.830Z,19.30
2018-06-16T12:53:55.020Z,19.40
2018-06-16T12:56:59.490Z,19.50
2018-06-16T13:00:03.902Z,19.60
2018-06-16T13:03:08.332Z,19.80
2018-06-16T13:06:12.737Z,19.80
2018-06-16T13:09:17.151Z,19.90
2018-06-16T13:12:21.564Z,20.00
2018-06-16T13:15:25.974Z,20.00
2018-06-16T13:18:30.361Z,20.00
2018-06-16T13:24:38.926Z,20.10
2018-06-16T13:27:43.374Z,20.10
2018-06-16T13:30:47.849Z,20.10
2018-06-16T13:33:52.248Z,20.20
2018-06-16T13:36:56.661Z,20.30
2018-06-16T13:40:01.041Z,20.30
2018-06-16T13:43:05.496Z,20.40
2018-06-16T13:46:09.853Z,20.60
2018-06-16T13:49:14.271Z,20.60
2018-06-16T13:52:18.775Z,20.50
2018-06-16T13:55:23.178Z,20.50
2018-06-16T13:58:27.553Z,20.60
2018-06-16T14:01:31.933Z,20.70
2018-06-16T14:04:36.353Z,20.70
2018-06-16T14:07:40.762Z,20.80
2018-06-16T14:10:45.182Z,20.70
2018-06-16T14:13:49.596Z,20.80
2018-06-16T14:16:53.997Z,20.90
2018-06-16T14:19:58.416Z,21.00
2018-06-16T14:26:07.009Z,20.90
2018-06-16T14:29:11.414Z,20.90
2018-06-16T14:32:15.804Z,20.90
2018-06-16T14:35:20.202Z,20.90
2018-06-16T14:38:24.634Z,20.80
2018-06-16T14:41:29.059Z,20.80
2018-06-16T14:44:33.469Z,20.70
2018-06-16T14:47:37.899Z,20.70
2018-06-16T14:50:42.293Z,20.60
2018-06-16T14:53:46.725Z,20.60
2018-06-16T14:56:51.157Z,20.60
2018-06-16T14:59:55.573Z,20.60
2018-06-16T15:02:59.965Z,20.60
2018-06-16T15:06:04.379Z,20.50
2018-06-16T15:09:10.680Z,20.50
2018-06-16T15:12:15.084Z,20.50
2018-06-16T15:15:19.505Z,20.60
2018-06-16T15:18:23.925Z,20.70
2018-06-16T15:21:28.333Z,20.70
2018-06-16T15:24:32.728Z,20.70
2018-06-16T15:27:37.156Z,20.80
2018-06-16T15:30:41.557Z,20.80
2018-06-16T15:33:45.961Z,20.80
2018-06-16T15:36:50.349Z,20.80
2018-06-16T15:39:54.769Z,20.80
2018-06-16T15:42:59.173Z,20.70
2018-06-16T15:46:03.585Z,20.60
2018-06-16T15:49:08.410Z,20.50
2018-06-16T15:52:12.821Z,20.40
2018-06-16T15:55:17.184Z,20.40
2018-06-16T15:58:21.548Z,20.30
2018-06-16T16:01:25.941Z,20.20
2018-06-16T16:04:30.340Z,19.60
2018-06-16T16:07:34.728Z,19.10
2018-06-16T16:10:39.106Z,18.80
2018-06-16T16:13:43.535Z,18.70
2018-06-16T16:16:47.913Z,18.60
2018-06-16T16:19:52.329Z,18.60
2018-06-16T16:22:56.729Z,18.60
2018-06-16T16:26:01.123Z,18.70
2018-06-16T16:29:05.566Z,18.70
2018-06-16T16:32:09.921Z,18.70
2018-06-16T16:35:14.308Z,18.80
2018-06-16T16:38:18.925Z,18.70
2018-06-16T16:41:23.695Z,18.70
2018-06-16T16:44:28.399Z,18.70
2018-06-16T16:47:32.905Z,18.70
2018-06-16T16:50:37.390Z,18.70
2018-06-16T16:53:43.655Z,18.70
2018-06-16T16:56:48.401Z,18.70
2018-06-16T16:59:53.631Z,18.80
2018-06-16T17:02:58.444Z,18.80
2018-06-16T17:06:02.928Z,18.90
2018-06-16T17:09:09.829Z,18.90
2018-06-16T17:12:14.201Z,18.80
2018-06-16T17:15:18.568Z,18.70
2018-06-16T17:18:22.936Z,18.80
2018-06-16T17:21:27.307Z,18.70
2018-06-16T17:24:31.685Z,18.70
2018-06-16T17:27:36.092Z,18.70
2018-06-16T17:30:40.472Z,18.70
2018-06-16T17:33:44.857Z,18.60
2018-06-16T17:36:49.258Z,18.60
2018-06-16T17:39:53.944Z,18.60
2018-06-16T17:42:58.334Z,18.50
2018-06-16T17:46:02.697Z,18.50
2018-06-16T17:49:07.057Z,18.40
2018-06-16T17:52:11.429Z,18.30
2018-06-16T17:55:15.968Z,18.30
2018-06-16T17:58:20.325Z,18.20
2018-06-16T18:01:24.724Z,18.20
2018-06-16T18:04:29.156Z,18.30
2018-06-16T18:07:33.538Z,18.30
2018-06-16T18:10:37.956Z,18.30
2018-06-16T18:13:42.335Z,18.30
2018-06-16T18:16:46.755Z,18.30
2018-06-16T18:19:51.109Z,18.30
2018-06-16T18:22:55.457Z,18.30
2018-06-16T18:25:59.866Z,18.30
2018-06-16T18:29:04.225Z,18.30
2018-06-16T18:32:08.600Z,18.30
2018-06-16T18:35:13.005Z,18.30
2018-06-16T18:38:17.352Z,18.20
2018-06-16T18:41:21.720Z,18.20
2018-06-16T18:44:26.092Z,18.20
2018-06-16T18:47:30.453Z,18.10
2018-06-16T18:50:34.833Z,18.10
2018-06-16T18:53:39.184Z,18.10
2018-06-16T18:56:43.560Z,18.00
2018-06-16T18:59:47.941Z,17.90
2018-06-16T19:02:52.309Z,17.90
2018-06-16T19:05:56.673Z,17.90
2018-06-16T19:09:01.053Z,17.80
2018-06-16T19:12:05.441Z,17.80
2018-06-16T19:15:09.824Z,17.80
2018-06-16T19:18:14.184Z,17.70
2018-06-16T19:21:18.556Z,17.70
2018-06-16T19:24:22.914Z,17.60
2018-06-16T19:27:27.317Z,17.60
2018-06-16T19:30:31.710Z,17.60
2018-06-16T19:33:36.170Z,17.50
2018-06-16T19:36:40.523Z,17.50
2018-06-16T19:39:44.890Z,17.50
2018-06-16T19:42:49.274Z,17.50
2018-06-16T19:45:53.648Z,17.40
2018-06-16T19:48:58.036Z,17.40
2018-06-16T19:52:02.398Z,17.30
2018-06-16T19:55:07.706Z,17.30
2018-06-16T19:58:12.128Z,17.20
2018-06-16T20:01:16.509Z,17.30
2018-06-16T20:04:20.914Z,17.20
2018-06-16T20:07:25.277Z,17.20
2018-06-16T20:10:29.655Z,17.10
2018-06-16T20:13:34.018Z,17.10
2018-06-16T20:16:38.430Z,17.10
2018-06-16T20:19:42.802Z,17.00
2018-06-16T20:22:47.229Z,16.90
2018-06-16T20:25:51.603Z,16.90
2018-06-16T20:28:55.970Z,16.80
2018-06-16T20:32:00.355Z,16.80
2018-06-16T20:35:04.790Z,16.70
2018-06-16T20:38:09.185Z,16.70
2018-06-16T20:41:13.543Z,16.60
2018-06-16T20:44:18.084Z,16.50
2018-06-16T20:47:22.444Z,16.40
2018-06-16T20:50:26.835Z,16.40
2018-06-16T20:53:31.348Z,16.40
2018-06-16T20:56:35.733Z,16.30
2018-06-16T20:59:40.121Z,16.30
2018-06-16T21:02:44.493Z,16.20
2018-06-16T21:05:48.865Z,16.20
2018-06-16T21:08:53.258Z,16.10
2018-06-16T21:11:57.625Z,16.10
2018-06-16T21:15:01.981Z,16.10
2018-06-16T21:18:06.557Z,16.00
2018-06-16T21:21:10.950Z,16.00
2018-06-16T21:24:15.333Z,16.00
2018-06-16T21:27:19.693Z,15.90
2018-06-16T21:33:28.197Z,15.80
2018-06-16T21:36:32.598Z,15.80
2018-06-16T21:39:36.996Z,15.80
2018-06-16T21:42:41.385Z,15.70
2018-06-16T21:45:45.769Z,15.70
2018-06-16T21:48:50.142Z,15.70
2018-06-16T21:51:54.530Z,15.60
2018-06-16T21:54:58.941Z,15.60
2018-06-16T21:58:03.313Z,15.60
2018-06-16T22:01:07.736Z,15.50
2018-06-16T22:04:12.097Z,15.50
2018-06-16T22:07:16.625Z,15.50
2018-06-16T22:10:21.060Z,15.50
2018-06-16T22:13:25.426Z,15.50
2018-06-16T22:16:29.805Z,15.50
2018-06-16T22:19:34.191Z,15.60
2018-06-16T22:22:38.557Z,15.50
2018-06-16T22:25:42.949Z,15.50
2018-06-16T22:28:47.325Z,15.50
2018-06-16T22:31:51.740Z,15.50
2018-06-16T22:41:04.378Z,15.50
2018-06-16T22:44:09.571Z,15.40
2018-06-16T22:47:13.920Z,15.30
2018-06-16T22:50:18.335Z,15.30
2018-06-16T22:53:22.706Z,15.30
2018-06-16T22:56:27.140Z,15.30
2018-06-16T22:59:31.493Z,15.30
2018-06-16T23:02:36.063Z,15.30
2018-06-16T23:05:40.452Z,15.30
2018-06-16T23:08:44.873Z,15.30
2018-06-16T23:11:49.261Z,15.30
2018-06-16T23:14:53.674Z,15.30
2018-06-16T23:17:58.081Z,15.30
2018-06-16T23:21:02.479Z,15.40
2018-06-16T23:24:06.861Z,15.40
2018-06-16T23:27:11.253Z,15.40
2018-06-16T23:30:15.685Z,15.40
2018-06-16T23:33:20.064Z,15.40
2018-06-16T23:36:24.457Z,15.40
2018-06-16T23:39:28.845Z,15.30
2018-06-16T23:42:33.221Z,15.30
2018-06-16T23:45:37.613Z,15.20
2018-06-16T23:48:42.012Z,15.20
2018-06-16T23:51:46.382Z,15.10
2018-06-16T23:54:50.802Z,15.10
2018-06-16T23:57:55.197Z,14.90
